createdAt,value
2018-01-25T00:02:57.743Z,2.10
2018-01-25T00:05:59.608Z,2.13
2018-01-25T00:09:01.484Z,2.03
2018-01-25T00:12:03.376Z,2.17
2018-01-25T00:15:05.246Z,1.83
2018-01-25T00:18:07.111Z,2.20
2018-01-25T00:21:08.979Z,2.07
2018-01-25T00:24:10.859Z,2.27
2018-01-25T00:27:12.727Z,1.97
2018-01-25T00:30:14.611Z,2.10
2018-01-25T00:33:16.475Z,2.20
2018-01-25T00:36:18.362Z,2.20
2018-01-25T00:39:20.231Z,2.23
2018-01-25T00:42:22.131Z,2.43
2018-01-25T00:45:23.993Z,2.20
2018-01-25T00:48:25.887Z,2.23
2018-01-25T00:51:27.759Z,1.90
2018-01-25T00:54:29.654Z,2.10
2018-01-25T00:57:31.540Z,2.33
2018-01-25T01:00:33.435Z,2.00
2018-01-25T01:03:35.315Z,2.27
2018-01-25T01:06:37.198Z,2.33
2018-01-25T01:09:39.062Z,2.00
2018-01-25T01:12:40.938Z,2.00
2018-01-25T01:15:42.807Z,1.83
2018-01-25T01:18:44.679Z,2.03
2018-01-25T01:21:46.571Z,2.07
2018-01-25T01:24:48.445Z,1.97
2018-01-25T01:27:50.339Z,1.93
2018-01-25T01:30:52.210Z,1.93
2018-01-25T01:33:54.083Z,1.90
2018-01-25T01:36:55.963Z,2.40
2018-01-25T01:39:57.831Z,1.77
2018-01-25T01:43:00.051Z,2.30
2018-01-25T01:46:01.959Z,2.00
2018-01-25T01:49:03.815Z,1.80
2018-01-25T01:52:05.691Z,2.13
2018-01-25T01:55:07.839Z,2.00
2018-01-25T01:58:09.715Z,1.93
2018-01-25T02:01:11.590Z,2.00
2018-01-25T02:04:13.462Z,2.00
2018-01-25T02:07:15.339Z,1.80
2018-01-25T02:10:17.215Z,1.90
2018-01-25T02:13:19.079Z,1.60
2018-01-25T02:16:20.967Z,1.90
2018-01-25T02:19:22.831Z,1.80
2018-01-25T02:22:24.727Z,1.70
2018-01-25T02:25:26.608Z,1.83
2018-01-25T02:28:28.477Z,1.50
2018-01-25T02:31:30.368Z,1.80
2018-01-25T02:34:32.229Z,1.80
2018-01-25T02:37:34.097Z,1.90
2018-01-25T02:40:35.971Z,1.80
2018-01-25T02:43:37.843Z,2.10
2018-01-25T02:46:39.723Z,2.07
2018-01-25T02:49:41.591Z,1.67
2018-01-25T02:52:43.467Z,1.70
2018-01-25T02:55:45.348Z,1.80
2018-01-25T02:58:47.235Z,1.80
2018-01-25T03:01:49.143Z,1.90
2018-01-25T03:04:51.018Z,1.70
2018-01-25T03:07:52.906Z,1.70
2018-01-25T03:10:54.794Z,1.57
2018-01-25T03:13:56.667Z,1.80
2018-01-25T03:16:58.536Z,1.50
2018-01-25T03:20:00.434Z,1.53
2018-01-25T03:23:02.339Z,1.67
2018-01-25T03:26:04.223Z,1.70
2018-01-25T03:29:06.098Z,1.60
2018-01-25T03:32:08.056Z,1.90
2018-01-25T03:35:09.933Z,2.00
2018-01-25T03:38:11.804Z,1.90
2018-01-25T03:41:13.678Z,1.43
2018-01-25T03:44:15.554Z,1.63
2018-01-25T03:47:17.418Z,1.67
2018-01-25T03:50:19.291Z,1.67
2018-01-25T03:53:21.180Z,1.67
2018-01-25T03:56:23.050Z,1.57
2018-01-25T03:59:24.931Z,1.40
2018-01-25T04:02:26.807Z,1.43
2018-01-25T04:05:28.688Z,1.67
2018-01-25T04:08:30.550Z,1.47
2018-01-25T04:11:32.449Z,1.70
2018-01-25T04:14:34.310Z,1.60
2018-01-25T04:17:36.187Z,1.70
2018-01-25T04:20:38.065Z,1.50
2018-01-25T04:23:39.975Z,1.47
2018-01-25T04:26:41.855Z,1.53
2018-01-25T04:29:43.731Z,1.50
2018-01-25T04:32:45.626Z,1.63
2018-01-25T04:35:47.502Z,1.60
2018-01-25T04:38:49.399Z,1.70
2018-01-25T04:41:51.274Z,1.60
2018-01-25T04:44:53.141Z,1.60
2018-01-25T04:47:55.014Z,1.60
2018-01-25T04:50:56.887Z,1.60
2018-01-25T04:53:58.768Z,1.57
2018-01-25T04:57:00.647Z,1.60
2018-01-25T05:00:02.528Z,1.70
2018-01-25T05:03:04.423Z,1.30
2018-01-25T05:06:06.272Z,1.30
2018-01-25T05:09:08.150Z,1.70
2018-01-25T05:12:10.044Z,1.30
2018-01-25T05:15:11.915Z,1.70
2018-01-25T05:18:13.800Z,1.50
2018-01-25T05:21:15.683Z,1.30
2018-01-25T05:24:17.568Z,1.33
2018-01-25T05:27:19.453Z,1.30
2018-01-25T05:30:21.338Z,1.30
2018-01-25T05:33:23.217Z,1.27
2018-01-25T05:36:25.087Z,1.40
2018-01-25T05:39:26.962Z,1.40
2018-01-25T05:42:28.876Z,1.50
2018-01-25T05:45:30.747Z,1.40
2018-01-25T05:48:32.634Z,1.37
2018-01-25T05:51:34.503Z,1.10
2018-01-25T05:54:36.406Z,1.30
2018-01-25T05:57:38.278Z,1.37
2018-01-25T06:00:40.159Z,1.30
2018-01-25T06:03:42.042Z,1.20
2018-01-25T06:06:43.915Z,1.40
2018-01-25T06:09:45.802Z,1.30
2018-01-25T06:12:47.664Z,1.27
2018-01-25T06:15:49.579Z,1.10
2018-01-25T06:18:51.451Z,1.30
2018-01-25T06:21:53.310Z,1.53
2018-01-25T06:24:55.459Z,1.27
2018-01-25T06:27:57.662Z,1.43
2018-01-25T06:30:59.539Z,1.10
2018-01-25T06:34:01.427Z,1.23
2018-01-25T06:37:03.308Z,1.10
2018-01-25T06:40:05.174Z,1.30
2018-01-25T06:43:07.079Z,1.37
2018-01-25T06:46:08.955Z,1.10
2018-01-25T06:49:10.824Z,1.30
2018-01-25T06:52:12.711Z,1.20
2018-01-25T06:55:14.582Z,1.10
2018-01-25T06:58:16.451Z,1.10
2018-01-25T07:01:18.323Z,1.30
2018-01-25T07:04:20.210Z,1.17
2018-01-25T07:07:22.083Z,1.20
2018-01-25T07:10:23.975Z,1.40
2018-01-25T07:13:25.846Z,1.20
2018-01-25T07:16:27.723Z,1.23
2018-01-25T07:19:29.623Z,1.27
2018-01-25T07:22:31.512Z,1.20
2018-01-25T07:25:33.376Z,1.10
2018-01-25T07:28:35.251Z,1.13
2018-01-25T07:31:37.131Z,1.00
2018-01-25T07:34:38.999Z,1.27
2018-01-25T07:37:40.874Z,0.90
2018-01-25T07:40:42.754Z,1.40
2018-01-25T07:43:44.628Z,1.30
2018-01-25T07:46:46.520Z,1.00
2018-01-25T07:49:48.391Z,1.10
2018-01-25T07:52:50.263Z,1.00
2018-01-25T07:55:52.139Z,1.20
2018-01-25T07:58:54.023Z,0.93
2018-01-25T08:01:56.227Z,1.10
2018-01-25T08:04:58.112Z,1.20
2018-01-25T08:07:59.990Z,1.20
2018-01-25T08:11:01.867Z,1.20
2018-01-25T08:14:03.744Z,1.20
2018-01-25T08:17:05.615Z,1.23
2018-01-25T08:20:07.491Z,1.10
2018-01-25T08:23:09.371Z,1.20
2018-01-25T08:26:11.247Z,1.30
2018-01-25T08:29:13.119Z,1.00
2018-01-25T08:32:14.990Z,0.97
2018-01-25T08:35:16.858Z,1.07
2018-01-25T08:38:18.732Z,1.20
2018-01-25T08:41:20.620Z,1.30
2018-01-25T08:44:22.493Z,1.20
2018-01-25T08:47:24.356Z,1.30
2018-01-25T08:50:26.235Z,1.30
2018-01-25T08:53:28.147Z,1.27
2018-01-25T08:56:30.024Z,1.37
2018-01-25T08:59:31.910Z,1.20
2018-01-25T09:02:33.774Z,1.40
2018-01-25T09:05:35.711Z,1.40
2018-01-25T09:08:37.583Z,1.20
2018-01-25T09:11:39.455Z,1.47
2018-01-25T09:14:41.334Z,1.20
2018-01-25T09:17:43.203Z,1.20
2018-01-25T09:20:45.084Z,1.27
2018-01-25T09:23:46.963Z,1.20
2018-01-25T09:26:48.830Z,1.30
2018-01-25T09:29:50.699Z,1.10
2018-01-25T09:32:52.614Z,1.00
2018-01-25T09:35:54.491Z,1.10
2018-01-25T09:38:56.359Z,1.10
2018-01-25T09:41:58.255Z,1.00
2018-01-25T09:45:00.150Z,1.10
2018-01-25T09:48:02.054Z,1.03
2018-01-25T09:51:03.927Z,1.20
2018-01-25T09:54:05.802Z,1.00
2018-01-25T09:57:07.688Z,1.30
2018-01-25T10:00:09.576Z,1.00
2018-01-25T10:03:11.450Z,1.00
2018-01-25T10:06:13.319Z,1.20
2018-01-25T10:09:15.211Z,1.00
2018-01-25T10:12:17.084Z,1.20
2018-01-25T10:15:18.963Z,1.20
2018-01-25T10:18:20.871Z,1.20
2018-01-25T10:21:22.749Z,1.03
2018-01-25T10:24:24.627Z,1.00
2018-01-25T10:27:26.535Z,1.20
2018-01-25T10:30:28.390Z,1.00
2018-01-25T10:33:30.279Z,1.30
2018-01-25T10:36:32.167Z,1.10
2018-01-25T10:39:34.040Z,1.00
2018-01-25T10:42:35.916Z,1.20
2018-01-25T10:45:37.807Z,1.00
2018-01-25T10:48:39.678Z,1.17
2018-01-25T10:51:41.619Z,1.20
2018-01-25T10:54:43.499Z,1.10
2018-01-25T10:57:45.383Z,1.10
2018-01-25T11:00:51.434Z,1.10
2018-01-25T11:03:53.304Z,1.17
2018-01-25T11:06:55.185Z,1.17
2018-01-25T11:09:57.050Z,1.10
2018-01-25T11:12:58.920Z,1.10
2018-01-25T11:16:00.823Z,1.10
2018-01-25T11:19:02.706Z,1.00
2018-01-25T11:22:04.603Z,1.10
2018-01-25T11:25:06.485Z,1.13
2018-01-25T11:28:08.360Z,1.00
2018-01-25T11:31:10.278Z,1.00
2018-01-25T11:34:12.159Z,1.00
2018-01-25T11:37:14.048Z,0.90
2018-01-25T11:40:15.924Z,1.03
2018-01-25T11:43:17.790Z,1.10
2018-01-25T11:46:19.663Z,1.10
2018-01-25T11:49:21.548Z,0.90
2018-01-25T11:52:23.427Z,1.03
2018-01-25T11:55:25.320Z,1.00
2018-01-25T11:58:27.199Z,1.20
2018-01-25T12:01:29.064Z,1.00
2018-01-25T12:04:30.939Z,1.07
2018-01-25T12:07:32.946Z,1.10
2018-01-25T12:10:34.691Z,1.03
2018-01-25T12:13:36.595Z,1.00
2018-01-25T12:16:38.495Z,0.90
2018-01-25T12:19:40.343Z,1.10
2018-01-25T12:22:42.210Z,1.00
2018-01-25T12:25:44.078Z,1.10
2018-01-25T12:28:45.956Z,0.93
2018-01-25T12:31:47.847Z,1.10
2018-01-25T12:34:49.712Z,0.90
2018-01-25T12:37:51.582Z,0.83
2018-01-25T12:40:53.608Z,1.13
2018-01-25T12:43:55.503Z,0.90
2018-01-25T12:46:57.428Z,1.00
2018-01-25T12:49:59.402Z,0.80
2018-01-25T12:53:01.275Z,1.10
2018-01-25T12:56:03.167Z,0.90
2018-01-25T12:59:05.043Z,0.80
2018-01-25T13:02:06.933Z,1.20
2018-01-25T13:05:08.827Z,1.00
2018-01-25T13:08:10.704Z,0.80
2018-01-25T13:11:12.588Z,1.00
2018-01-25T13:14:14.460Z,1.13
2018-01-25T13:17:16.347Z,0.87
2018-01-25T13:20:18.219Z,0.90
2018-01-25T13:23:20.096Z,0.90
2018-01-25T13:26:21.963Z,0.90
2018-01-25T13:29:23.840Z,0.80
2018-01-25T13:32:25.719Z,1.27
2018-01-25T13:35:27.594Z,1.00
2018-01-25T13:38:29.666Z,0.90
2018-01-25T13:41:31.544Z,1.10
2018-01-25T13:44:33.422Z,0.80
2018-01-25T13:47:35.313Z,1.23
2018-01-25T13:50:37.184Z,1.10
2018-01-25T13:53:39.040Z,1.00
2018-01-25T13:56:40.924Z,1.40
2018-01-25T13:59:42.846Z,1.30
2018-01-25T14:02:44.714Z,1.20
2018-01-25T14:05:46.590Z,1.20
2018-01-25T14:08:48.466Z,1.30
2018-01-25T14:11:50.331Z,1.27
2018-01-25T14:14:52.207Z,1.40
2018-01-25T14:17:54.079Z,1.10
2018-01-25T14:20:55.966Z,1.10
2018-01-25T14:23:57.839Z,1.17
2018-01-25T14:26:59.711Z,0.97
2018-01-25T14:30:01.583Z,1.17
2018-01-25T14:33:03.459Z,1.17
2018-01-25T14:36:05.672Z,1.10
2018-01-25T14:39:07.560Z,1.10
2018-01-25T14:42:09.480Z,1.07
2018-01-25T14:45:11.406Z,1.00
2018-01-25T14:48:13.223Z,1.27
2018-01-25T14:51:15.120Z,0.97
2018-01-25T14:54:17.003Z,1.20
2018-01-25T14:57:18.879Z,1.20
2018-01-25T15:00:20.746Z,1.10
2018-01-25T15:03:22.689Z,1.20
2018-01-25T15:06:24.587Z,1.30
2018-01-25T15:09:26.456Z,1.20
2018-01-25T15:12:28.342Z,1.20
2018-01-25T15:15:30.223Z,1.10
2018-01-25T15:18:32.086Z,1.13
2018-01-25T15:21:33.964Z,1.27
2018-01-25T15:24:35.884Z,1.10
2018-01-25T15:27:37.759Z,1.20
2018-01-25T15:30:39.655Z,0.90
2018-01-25T15:33:41.519Z,1.10
2018-01-25T15:36:43.390Z,1.50
2018-01-25T15:39:45.263Z,1.10
2018-01-25T15:42:47.180Z,1.20
2018-01-25T15:45:49.073Z,1.03
2018-01-25T15:48:50.950Z,1.20
2018-01-25T15:51:52.822Z,1.20
2018-01-25T15:54:54.709Z,1.07
2018-01-25T15:57:56.576Z,1.00
2018-01-25T16:00:58.479Z,1.10
2018-01-25T16:04:00.356Z,1.10
2018-01-25T16:07:02.223Z,1.00
2018-01-25T16:10:04.100Z,1.20
2018-01-25T16:13:05.979Z,0.90
2018-01-25T16:16:07.871Z,1.20
2018-01-25T16:19:09.737Z,1.20
2018-01-25T16:22:11.603Z,1.03
2018-01-25T16:25:13.475Z,1.20
2018-01-25T16:28:15.387Z,1.00
2018-01-25T16:31:17.263Z,1.20
2018-01-25T16:34:19.127Z,1.20
2018-01-25T16:37:21.020Z,1.10
2018-01-25T16:40:22.908Z,1.10
2018-01-25T16:43:24.839Z,1.10
2018-01-25T16:46:26.708Z,1.20
2018-01-25T16:49:28.582Z,1.20
2018-01-25T16:52:30.519Z,1.20
2018-01-25T16:55:32.567Z,1.10
2018-01-25T16:58:34.458Z,1.10
2018-01-25T17:01:36.387Z,1.10
2018-01-25T17:04:38.259Z,1.23
2018-01-25T17:07:40.138Z,0.93
2018-01-25T17:10:42.043Z,1.10
2018-01-25T17:13:43.915Z,2.20
2018-01-25T17:16:45.811Z,2.33
2018-01-25T17:19:47.694Z,2.10
2018-01-25T17:22:49.578Z,1.90
2018-01-25T17:25:51.468Z,1.70
2018-01-25T17:28:53.359Z,2.23
2018-01-25T17:31:55.238Z,2.47
2018-01-25T17:34:57.119Z,2.07
2018-01-25T17:37:58.991Z,2.17
2018-01-25T17:41:00.874Z,2.17
2018-01-25T17:44:02.799Z,2.20
2018-01-25T17:47:04.698Z,2.13
2018-01-25T17:50:06.772Z,2.20
2018-01-25T17:53:08.679Z,2.00
2018-01-25T17:56:10.602Z,2.03
2018-01-25T17:59:12.487Z,1.80
2018-01-25T18:02:14.371Z,1.83
2018-01-25T18:05:16.263Z,2.17
2018-01-25T18:08:18.148Z,2.10
2018-01-25T18:11:20.065Z,2.20
2018-01-25T18:14:21.952Z,2.10
2018-01-25T18:17:23.828Z,2.57
2018-01-25T18:20:25.719Z,1.90
2018-01-25T18:23:27.595Z,2.17
2018-01-25T18:26:29.484Z,2.30
2018-01-25T18:29:31.359Z,2.00
2018-01-25T18:32:33.241Z,1.93
2018-01-25T18:35:35.111Z,1.90
2018-01-25T18:38:36.995Z,1.97
2018-01-25T18:41:38.890Z,2.10
2018-01-25T18:44:40.771Z,2.07
2018-01-25T18:47:42.651Z,1.93
2018-01-25T18:50:44.527Z,1.97
2018-01-25T18:53:46.418Z,1.93
2018-01-25T18:56:48.312Z,2.00
2018-01-25T18:59:51.100Z,2.20
2018-01-25T19:02:52.983Z,1.90
2018-01-25T19:05:54.871Z,1.87
2018-01-25T19:08:56.770Z,2.00
2018-01-25T19:11:59.542Z,2.17
2018-01-25T19:15:01.423Z,1.97
2018-01-25T19:18:03.300Z,2.00
2018-01-25T19:21:05.183Z,1.93
2018-01-25T19:24:07.061Z,1.97
2018-01-25T19:27:08.969Z,2.07
2018-01-25T19:30:10.836Z,1.90
2018-01-25T19:33:12.724Z,1.80
2018-01-25T19:36:14.607Z,2.23
2018-01-25T19:39:16.494Z,1.90
2018-01-25T19:42:18.376Z,2.00
2018-01-25T19:45:20.263Z,2.07
2018-01-25T19:48:22.163Z,2.23
2018-01-25T19:51:24.022Z,2.13
2018-01-25T19:54:25.915Z,2.20
2018-01-25T19:57:27.795Z,2.17
2018-01-25T20:00:29.686Z,1.90
2018-01-25T20:03:31.571Z,1.93
2018-01-25T20:06:33.443Z,1.83
2018-01-25T20:09:35.321Z,2.10
2018-01-25T20:12:37.211Z,2.03
2018-01-25T20:15:39.090Z,2.00
2018-01-25T20:18:40.963Z,1.87
2018-01-25T20:21:42.890Z,2.10
2018-01-25T20:24:44.767Z,2.37
2018-01-25T20:27:46.639Z,2.13
2018-01-25T20:30:48.518Z,2.10
2018-01-25T20:33:50.382Z,2.07
2018-01-25T20:36:52.267Z,1.90
2018-01-25T20:39:54.134Z,1.90
2018-01-25T20:42:56.011Z,2.13
2018-01-25T20:45:57.924Z,2.20
2018-01-25T20:48:59.804Z,2.22
2018-01-25T20:52:01.711Z,2.27
2018-01-25T20:55:03.593Z,2.10
2018-01-25T20:58:05.479Z,2.07
2018-01-25T21:01:07.357Z,2.10
2018-01-25T21:04:09.239Z,2.30
2018-01-25T21:07:11.113Z,2.30
2018-01-25T21:10:13.005Z,2.50
2018-01-25T21:13:14.890Z,2.30
2018-01-25T21:16:16.778Z,2.27
2018-01-25T21:19:18.663Z,2.40
2018-01-25T21:22:20.531Z,2.37
2018-01-25T21:25:22.403Z,2.27
2018-01-25T21:28:24.278Z,2.20
2018-01-25T21:31:26.151Z,2.40
2018-01-25T21:34:28.036Z,2.27
2018-01-25T21:37:29.910Z,2.37
2018-01-25T21:40:31.795Z,2.30
2018-01-25T21:43:33.675Z,2.30
2018-01-25T21:46:35.566Z,2.20
2018-01-25T21:49:37.441Z,2.63
2018-01-25T21:52:39.319Z,2.23
2018-01-25T21:55:41.191Z,2.50
2018-01-25T21:58:43.074Z,2.20
2018-01-25T22:01:44.955Z,2.10
2018-01-25T22:04:46.851Z,2.13
2018-01-25T22:07:48.721Z,2.30
2018-01-25T22:10:50.604Z,2.63
2018-01-25T22:13:52.483Z,1.90
2018-01-25T22:16:54.361Z,2.53
2018-01-25T22:19:56.234Z,2.10
2018-01-25T22:22:58.102Z,2.37
2018-01-25T22:25:59.979Z,2.40
2018-01-25T22:29:01.867Z,2.37
2018-01-25T22:32:03.738Z,2.50
2018-01-25T22:35:05.646Z,2.30
2018-01-25T22:38:07.542Z,2.13
2018-01-25T22:41:09.422Z,2.30
2018-01-25T22:44:11.308Z,2.00
2018-01-25T22:47:13.183Z,2.37
2018-01-25T22:50:15.052Z,2.40
2018-01-25T22:53:16.928Z,2.30
2018-01-25T22:56:18.806Z,2.37
2018-01-25T22:59:20.685Z,2.20
2018-01-25T23:02:22.571Z,2.73
2018-01-25T23:05:24.439Z,2.03
2018-01-25T23:08:26.326Z,2.50
2018-01-25T23:11:28.218Z,2.40
2018-01-25T23:14:30.187Z,2.10
2018-01-25T23:17:32.100Z,2.23
2018-01-25T23:20:33.986Z,2.47
2018-01-25T23:23:35.887Z,2.30
2018-01-25T23:26:37.765Z,2.20
2018-01-25T23:29:39.626Z,2.43
2018-01-25T23:32:41.498Z,2.43
2018-01-25T23:35:43.374Z,2.20
2018-01-25T23:38:45.255Z,2.00
2018-01-25T23:41:47.157Z,2.30
2018-01-25T23:44:49.023Z,2.00
2018-01-25T23:47:50.903Z,1.90
2018-01-25T23:50:52.803Z,2.43
2018-01-25T23:53:54.755Z,2.40
2018-01-25T23:56:56.637Z,2.10
2018-01-25T23:59:58.503Z,2.40
